Time;durP1;ratioP1;P1;durP2;ratioP2;P2;SDS_P1;SDS_P2;PMS_P1;PMS_P2;Temp;Humidity;BMP_temperature;BMP_pressure;BME280_temperature;BME280_humidity;BME280_pressure;Samples;Min_cycle;Max_cycle;Signal;HPM_P1;HPM_P2
2023/04/16 00:01:53;;;;;;;4.95;2.70;;;;;;;;;;5056535;28;20045;-79
2023/04/16 00:04:20;;;;;;;5.20;2.55;;;;;;;;;;5055816;28;20047;-78
2023/04/16 00:06:46;;;;;;;5.32;3.17;;;;;;;;;;5055807;28;20532;-78
2023/04/16 00:09:13;;;;;;;5.47;2.65;;;;;;;;;;5055339;28;20048;-78
2023/04/16 00:11:41;;;;;;;5.32;2.92;;;;;;;;;;5058539;28;20143;-78
2023/04/16 00:14:08;;;;;;;5.28;2.75;;;;;;;;;;5056839;28;20045;-78
2023/04/16 00:16:35;;;;;;;5.38;2.97;;;;;;;;;;5060871;28;20051;-78
2023/04/16 00:19:01;;;;;;;5.90;3.63;;;;;;;;;;5052259;28;20148;-77
2023/04/16 00:21:28;;;;;;;6.68;3.88;;;;;;;;;;5040219;28;20056;-78
2023/04/16 00:23:55;;;;;;;7.53;3.05;;;;;;;;;;5038532;28;20111;-78
2023/04/16 00:26:21;;;;;;;6.75;3.80;;;;;;;;;;5036951;28;20068;-78
2023/04/16 00:28:49;;;;;;;8.88;4.95;;;;;;;;;;5035624;28;20046;-78
2023/04/16 00:31:16;;;;;;;8.23;4.63;;;;;;;;;;5035833;28;20475;-77
2023/04/16 00:33:43;;;;;;;7.60;4.53;;;;;;;;;;5035705;28;20087;-78
2023/04/16 00:36:10;;;;;;;7.30;4.43;;;;;;;;;;5035093;28;20053;-77
2023/04/16 00:38:37;;;;;;;8.50;4.63;;;;;;;;;;5034936;28;20041;-76
2023/04/16 00:41:03;;;;;;;8.20;5.07;;;;;;;;;;5043697;28;20049;-77
2023/04/16 00:43:30;;;;;;;9.88;5.28;;;;;;;;;;5047408;28;20056;-77
2023/04/16 00:45:58;;;;;;;8.95;5.18;;;;;;;;;;5043124;28;20099;-79
2023/04/16 00:48:27;;;;;;;9.85;5.47;;;;;;;;;;5037300;28;20060;-78
2023/04/16 00:50:54;;;;;;;7.80;5.13;;;;;;;;;;5036184;28;20048;-77
2023/04/16 00:53:21;;;;;;;9.48;5.30;;;;;;;;;;5035080;28;20053;-77
2023/04/16 00:55:48;;;;;;;9.50;5.18;;;;;;;;;;5035618;28;20496;-78
2023/04/16 00:58:15;;;;;;;9.50;6.18;;;;;;;;;;5035419;28;20041;-77
2023/04/16 01:00:41;;;;;;;9.18;6.20;;;;;;;;;;5037220;28;20076;-78
2023/04/16 01:03:10;;;;;;;9.73;5.93;;;;;;;;;;5038934;28;20042;-78
2023/04/16 01:05:37;;;;;;;10.55;6.03;;;;;;;;;;5039088;28;20053;-77
2023/04/16 01:08:03;;;;;;;10.27;5.85;;;;;;;;;;5038351;28;20488;-78
2023/04/16 01:10:30;;;;;;;8.88;5.45;;;;;;;;;;5036020;28;20085;-78
2023/04/16 01:12:57;;;;;;;9.77;5.80;;;;;;;;;;5035902;28;20050;-77
2023/04/16 01:15:24;;;;;;;9.43;5.55;;;;;;;;;;5035447;28;20041;-78
2023/04/16 01:17:53;;;;;;;9.40;5.15;;;;;;;;;;5034396;28;20053;-77
2023/04/16 01:20:21;;;;;;;9.18;5.03;;;;;;;;;;5034988;28;20042;-77
2023/04/16 01:22:49;;;;;;;10.70;5.40;;;;;;;;;;5034821;28;20049;-77
2023/04/16 01:25:16;;;;;;;9.90;5.30;;;;;;;;;;5034939;28;20477;-77
2023/04/16 01:27:43;;;;;;;9.05;5.22;;;;;;;;;;5034365;28;20103;-77
2023/04/16 01:30:10;;;;;;;10.38;5.05;;;;;;;;;;5034576;28;20042;-77
2023/04/16 01:32:36;;;;;;;8.88;5.00;;;;;;;;;;5036709;28;20048;-77
2023/04/16 01:35:03;;;;;;;8.73;4.68;;;;;;;;;;5037945;28;20155;-79
2023/04/16 01:37:30;;;;;;;11.77;5.95;;;;;;;;;;5035710;28;20132;-77
2023/04/16 01:39:58;;;;;;;8.55;4.72;;;;;;;;;;5034627;28;20069;-77
2023/04/16 01:42:25;;;;;;;7.93;4.82;;;;;;;;;;5037540;28;20141;-77
2023/04/16 01:44:52;;;;;;;7.38;3.80;;;;;;;;;;5046153;28;20045;-78
2023/04/16 01:47:19;;;;;;;6.70;3.78;;;;;;;;;;5049149;28;20120;-77
2023/04/16 01:49:47;;;;;;;5.75;3.30;;;;;;;;;;5039216;28;20072;-76
2023/04/16 01:52:13;;;;;;;6.47;3.42;;;;;;;;;;5039384;28;20053;-77
2023/04/16 01:54:40;;;;;;;6.32;3.15;;;;;;;;;;5036251;28;20103;-79
2023/04/16 01:57:08;;;;;;;6.82;3.38;;;;;;;;;;5034828;28;20069;-77
2023/04/16 01:59:35;;;;;;;6.40;2.30;;;;;;;;;;5033724;28;20129;-77
2023/04/16 02:02:04;;;;;;;5.93;2.95;;;;;;;;;;5037236;28;20050;-79
2023/04/16 02:04:31;;;;;;;4.25;2.45;;;;;;;;;;5034510;28;20099;-77
2023/04/16 02:06:58;;;;;;;6.20;2.95;;;;;;;;;;5034042;28;20519;-78
2023/04/16 02:09:25;;;;;;;4.40;2.55;;;;;;;;;;5033537;28;20068;-77
2023/04/16 02:11:52;;;;;;;6.13;3.10;;;;;;;;;;5033731;28;20045;-78
2023/04/16 02:14:20;;;;;;;5.22;2.55;;;;;;;;;;5033395;28;20053;-78
2023/04/16 02:16:47;;;;;;;4.55;2.33;;;;;;;;;;5033283;28;20049;-78
2023/04/16 02:19:14;;;;;;;5.03;2.80;;;;;;;;;;5041458;28;20120;-79
2023/04/16 02:21:40;;;;;;;5.88;2.85;;;;;;;;;;5057112;28;20041;-77
2023/04/16 02:24:07;;;;;;;6.75;3.33;;;;;;;;;;5057334;28;20041;-78
2023/04/16 02:26:33;;;;;;;6.15;2.95;;;;;;;;;;5057783;28;20049;-80
2023/04/16 02:29:00;;;;;;;6.05;2.90;;;;;;;;;;5056620;28;20128;-79
2023/04/16 02:31:29;;;;;;;5.90;3.70;;;;;;;;;;5053725;28;20053;-77
2023/04/16 02:33:56;;;;;;;5.40;3.15;;;;;;;;;;5061113;28;20049;-78
2023/04/16 02:36:22;;;;;;;6.38;3.80;;;;;;;;;;5058030;28;20076;-80
2023/04/16 02:38:49;;;;;;;6.10;3.67;;;;;;;;;;5055198;28;20080;-79
2023/04/16 02:41:16;;;;;;;6.25;3.70;;;;;;;;;;5054968;28;20069;-80
2023/04/16 02:43:42;;;;;;;6.25;3.47;;;;;;;;;;5054674;28;20494;-78
2023/04/16 02:46:09;;;;;;;6.90;4.00;;;;;;;;;;5054615;28;20151;-78
2023/04/16 02:48:37;;;;;;;6.75;4.20;;;;;;;;;;5054121;28;20045;-78
2023/04/16 02:51:04;;;;;;;7.03;4.18;;;;;;;;;;5054980;28;20102;-79
2023/04/16 02:53:30;;;;;;;7.28;4.18;;;;;;;;;;5054304;28;20136;-78
2023/04/16 02:55:57;;;;;;;8.18;3.88;;;;;;;;;;5055144;28;20104;-80
2023/04/16 02:58:25;;;;;;;8.07;4.68;;;;;;;;;;5054241;28;20047;-79
2023/04/16 03:00:52;;;;;;;8.48;4.85;;;;;;;;;;5053931;28;20092;-77
2023/04/16 03:03:19;;;;;;;9.15;5.15;;;;;;;;;;5054063;28;20088;-79
2023/04/16 03:05:47;;;;;;;8.13;4.03;;;;;;;;;;5054074;28;20056;-79
2023/04/16 03:08:14;;;;;;;8.93;4.35;;;;;;;;;;5057197;28;20407;-78
2023/04/16 03:10:41;;;;;;;7.47;4.70;;;;;;;;;;5057682;28;20056;-79
2023/04/16 03:13:10;;;;;;;7.68;4.40;;;;;;;;;;5059062;28;20045;-78
2023/04/16 03:15:37;;;;;;;8.45;4.55;;;;;;;;;;5063561;28;20049;-78
2023/04/16 03:18:04;;;;;;;7.30;4.20;;;;;;;;;;5067919;28;20053;-78
2023/04/16 03:20:30;;;;;;;8.00;4.80;;;;;;;;;;5039562;28;20114;-78
2023/04/16 03:22:58;;;;;;;7.43;4.43;;;;;;;;;;5038818;28;20041;-78
2023/04/16 03:25:25;;;;;;;7.53;4.70;;;;;;;;;;5037727;28;20041;-79
2023/04/16 03:27:51;;;;;;;9.50;5.03;;;;;;;;;;5038011;28;20075;-79
2023/04/16 03:30:18;;;;;;;7.65;4.72;;;;;;;;;;5040845;28;20128;-78
2023/04/16 03:32:45;;;;;;;8.13;4.90;;;;;;;;;;5038830;28;20057;-80
2023/04/16 03:35:12;;;;;;;9.52;4.70;;;;;;;;;;5039081;28;20068;-77
2023/04/16 03:37:39;;;;;;;9.63;5.15;;;;;;;;;;5036878;28;20415;-78
2023/04/16 03:40:08;;;;;;;8.48;5.10;;;;;;;;;;5043505;28;20076;-78
2023/04/16 03:42:35;;;;;;;9.98;5.10;;;;;;;;;;5056891;28;20060;-77
2023/04/16 03:45:01;;;;;;;9.38;4.35;;;;;;;;;;5048297;28;20041;-78
2023/04/16 03:47:28;;;;;;;8.15;4.70;;;;;;;;;;5038664;28;20056;-79
2023/04/16 03:49:54;;;;;;;7.93;4.60;;;;;;;;;;5038744;28;20122;-79
2023/04/16 03:52:21;;;;;;;7.75;4.30;;;;;;;;;;5038437;28;20124;-77
2023/04/16 03:54:48;;;;;;;7.95;4.45;;;;;;;;;;5037312;28;20128;-78
2023/04/16 03:57:16;;;;;;;7.60;3.97;;;;;;;;;;5038117;28;20080;-78
2023/04/16 03:59:42;;;;;;;9.15;4.78;;;;;;;;;;5036375;28;20060;-78
2023/04/16 04:02:09;;;;;;;7.22;4.10;;;;;;;;;;5038976;28;20128;-80
2023/04/16 04:04:35;;;;;;;7.90;4.68;;;;;;;;;;5037111;28;20411;-78
2023/04/16 04:07:02;;;;;;;7.70;4.25;;;;;;;;;;5037502;28;20128;-78
2023/04/16 04:09:29;;;;;;;8.10;4.03;;;;;;;;;;5037064;28;20049;-78
2023/04/16 04:11:55;;;;;;;7.72;4.10;;;;;;;;;;5036798;28;20591;-79
2023/04/16 04:14:23;;;;;;;7.00;4.38;;;;;;;;;;5036823;28;20132;-80
2023/04/16 04:16:50;;;;;;;7.55;4.72;;;;;;;;;;5036634;28;20041;-78
2023/04/16 04:19:17;;;;;;;9.05;4.43;;;;;;;;;;5045025;28;20083;-78
2023/04/16 04:21:43;;;;;;;8.70;4.43;;;;;;;;;;5059006;28;20567;-77
2023/04/16 04:24:10;;;;;;;7.80;4.63;;;;;;;;;;5075119;28;20136;-78
2023/04/16 04:26:37;;;;;;;8.43;4.80;;;;;;;;;;5074865;28;20048;-79
2023/04/16 04:29:03;;;;;;;9.25;4.60;;;;;;;;;;5069924;28;20049;-79
2023/04/16 04:31:31;;;;;;;7.75;4.72;;;;;;;;;;5057150;28;20098;-79
2023/04/16 04:33:58;;;;;;;8.15;4.78;;;;;;;;;;5056819;28;20053;-79
2023/04/16 04:36:28;;;;;;;7.88;4.28;;;;;;;;;;5058275;28;20477;-79
2023/04/16 04:38:54;;;;;;;9.50;5.47;;;;;;;;;;5060919;28;20128;-80
2023/04/16 04:41:21;;;;;;;9.23;4.40;;;;;;;;;;5057536;28;20053;-80
2023/04/16 04:43:48;;;;;;;10.55;4.50;;;;;;;;;;5057665;28;20132;-79
2023/04/16 04:46:14;;;;;;;8.90;4.75;;;;;;;;;;5057517;28;20053;-80
2023/04/16 04:48:42;;;;;;;8.00;4.65;;;;;;;;;;5058789;28;20053;-77
2023/04/16 04:51:09;;;;;;;8.82;4.75;;;;;;;;;;5060536;28;20049;-79
2023/04/16 04:53:36;;;;;;;8.25;5.15;;;;;;;;;;5063330;28;20076;-79
2023/04/16 04:56:03;;;;;;;8.77;4.63;;;;;;;;;;5064563;28;20049;-79
2023/04/16 04:58:30;;;;;;;7.75;4.60;;;;;;;;;;5066551;28;20106;-80
2023/04/16 05:00:56;;;;;;;7.68;4.60;;;;;;;;;;5061095;28;20556;-79
2023/04/16 05:03:23;;;;;;;10.02;4.60;;;;;;;;;;5056250;28;20049;-79
2023/04/16 05:05:51;;;;;;;8.68;5.25;;;;;;;;;;5056064;28;20132;-79
2023/04/16 05:08:20;;;;;;;7.60;4.13;;;;;;;;;;5056559;28;20079;-79
2023/04/16 05:10:47;;;;;;;8.13;4.25;;;;;;;;;;5055780;28;20045;-79
2023/04/16 05:13:13;;;;;;;8.15;4.53;;;;;;;;;;5055967;28;20072;-79
2023/04/16 05:15:40;;;;;;;8.18;4.45;;;;;;;;;;5056197;28;20045;-79
2023/04/16 05:18:07;;;;;;;8.73;4.82;;;;;;;;;;5055937;28;20041;-79
2023/04/16 05:20:33;;;;;;;8.30;4.40;;;;;;;;;;5037297;28;20049;-78
2023/04/16 05:23:01;;;;;;;7.70;4.20;;;;;;;;;;5036504;28;20109;-79
2023/04/16 05:25:28;;;;;;;8.63;4.22;;;;;;;;;;5036738;28;20731;-79
2023/04/16 05:27:55;;;;;;;8.00;4.50;;;;;;;;;;5042125;28;20127;-79
2023/04/16 05:30:21;;;;;;;6.97;4.20;;;;;;;;;;5036203;28;20132;-79
2023/04/16 05:32:48;;;;;;;8.88;4.85;;;;;;;;;;5038544;28;20468;-78
2023/04/16 05:35:14;;;;;;;6.78;4.15;;;;;;;;;;5037983;28;20110;-80
2023/04/16 05:37:41;;;;;;;7.38;4.25;;;;;;;;;;5037454;28;20471;-78
2023/04/16 05:40:10;;;;;;;7.63;4.30;;;;;;;;;;5038705;28;20072;-79
2023/04/16 05:42:37;;;;;;;8.70;4.45;;;;;;;;;;5038348;28;20132;-78
2023/04/16 05:45:04;;;;;;;6.80;3.72;;;;;;;;;;5037698;28;20103;-78
2023/04/16 05:47:31;;;;;;;7.68;4.15;;;;;;;;;;5038311;28;20072;-79
2023/04/16 05:49:57;;;;;;;6.50;4.10;;;;;;;;;;5040134;28;20119;-80
2023/04/16 05:52:24;;;;;;;6.70;4.63;;;;;;;;;;5048707;28;20467;-80
2023/04/16 05:54:51;;;;;;;7.50;4.25;;;;;;;;;;5044271;28;20565;-80
2023/04/16 05:57:19;;;;;;;6.03;3.80;;;;;;;;;;5041830;28;20120;-79
2023/04/16 05:59:45;;;;;;;7.25;4.68;;;;;;;;;;5047404;28;20055;-78
2023/04/16 06:02:12;;;;;;;6.13;3.42;;;;;;;;;;5049360;28;20377;-80
2023/04/16 06:04:39;;;;;;;5.32;3.47;;;;;;;;;;5045782;28;20132;-78
2023/04/16 06:07:05;;;;;;;5.90;3.53;;;;;;;;;;5045018;28;20407;-78
2023/04/16 06:09:32;;;;;;;5.95;3.13;;;;;;;;;;5045021;28;20176;-79
2023/04/16 06:12:01;;;;;;;6.88;3.38;;;;;;;;;;5047258;28;20489;-79
2023/04/16 06:14:29;;;;;;;6.03;3.08;;;;;;;;;;5046532;28;20041;-79
2023/04/16 06:16:56;;;;;;;5.30;3.20;;;;;;;;;;5050181;28;20665;-78
2023/04/16 06:19:22;;;;;;;5.32;3.30;;;;;;;;;;5053317;28;20037;-78
2023/04/16 06:21:49;;;;;;;5.68;3.22;;;;;;;;;;5062152;28;20052;-77
2023/04/16 06:24:17;;;;;;;4.53;2.45;;;;;;;;;;5060008;28;20033;-79
2023/04/16 06:26:44;;;;;;;5.18;2.95;;;;;;;;;;5051877;28;20052;-79
2023/04/16 06:29:11;;;;;;;5.07;2.55;;;;;;;;;;5051906;28;20046;-78
2023/04/16 06:31:39;;;;;;;4.75;2.42;;;;;;;;;;5053540;28;20041;-79
2023/04/16 06:34:06;;;;;;;5.05;2.70;;;;;;;;;;5043126;28;20113;-80
2023/04/16 06:36:32;;;;;;;3.90;2.20;;;;;;;;;;5036302;28;20644;-79
2023/04/16 06:38:59;;;;;;;3.92;2.10;;;;;;;;;;5036786;28;20494;-78
2023/04/16 06:41:26;;;;;;;3.60;1.80;;;;;;;;;;5046203;28;20049;-78
2023/04/16 06:43:52;;;;;;;2.63;1.63;;;;;;;;;;5052423;28;20105;-77
2023/04/16 06:46:19;;;;;;;3.75;2.30;;;;;;;;;;5052901;28;20050;-77
2023/04/16 06:48:47;;;;;;;3.38;2.00;;;;;;;;;;5049986;28;20117;-80
2023/04/16 06:51:14;;;;;;;3.80;2.15;;;;;;;;;;5040534;28;20065;-80
2023/04/16 06:53:41;;;;;;;3.15;1.60;;;;;;;;;;5039815;28;20053;-80
2023/04/16 06:56:08;;;;;;;3.13;1.67;;;;;;;;;;5038702;28;20056;-78
2023/04/16 06:58:35;;;;;;;2.92;1.50;;;;;;;;;;5039805;28;20088;-80
2023/04/16 07:01:02;;;;;;;2.60;1.40;;;;;;;;;;5040533;28;20049;-81
2023/04/16 07:03:28;;;;;;;2.85;1.40;;;;;;;;;;5041009;28;20049;-79
2023/04/16 07:05:57;;;;;;;2.95;1.73;;;;;;;;;;5041516;28;20053;-79
2023/04/16 07:08:23;;;;;;;2.35;1.10;;;;;;;;;;5040892;28;20531;-79
2023/04/16 07:10:51;;;;;;;2.00;1.20;;;;;;;;;;5051262;28;20136;-78
2023/04/16 07:13:18;;;;;;;2.25;1.33;;;;;;;;;;5043968;28;20099;-79
2023/04/16 07:15:45;;;;;;;3.00;1.50;;;;;;;;;;5041045;28;20056;-79
2023/04/16 07:18:11;;;;;;;1.63;1.10;;;;;;;;;;5041866;28;20129;-80
2023/04/16 07:20:38;;;;;;;3.35;1.42;;;;;;;;;;5061416;28;20124;-79
2023/04/16 07:23:06;;;;;;;3.40;1.23;;;;;;;;;;5060889;28;20103;-80
2023/04/16 07:25:33;;;;;;;2.50;1.40;;;;;;;;;;5062884;28;20040;-80
2023/04/16 07:27:59;;;;;;;2.83;1.33;;;;;;;;;;5064661;28;20068;-79
2023/04/16 07:30:31;;;;;;;2.08;1.02;;;;;;;;;;5063827;28;20112;-79
2023/04/16 07:32:58;;;;;;;2.05;0.90;;;;;;;;;;5062438;28;20079;-79
2023/04/16 07:35:24;;;;;;;2.33;0.90;;;;;;;;;;5062157;28;20084;-79
2023/04/16 07:37:51;;;;;;;3.05;1.15;;;;;;;;;;5061469;28;20053;-79
2023/04/16 07:40:19;;;;;;;3.22;1.20;;;;;;;;;;5061721;28;20133;-81
2023/04/16 07:42:46;;;;;;;1.85;0.90;;;;;;;;;;5061829;28;20041;-79
2023/04/16 07:45:12;;;;;;;1.70;0.80;;;;;;;;;;5061046;28;20113;-80
2023/04/16 07:47:39;;;;;;;2.05;1.02;;;;;;;;;;5061901;28;20041;-79
2023/04/16 07:50:07;;;;;;;1.73;0.90;;;;;;;;;;5063405;28;20049;-80
2023/04/16 07:52:34;;;;;;;1.98;1.00;;;;;;;;;;5060490;28;20108;-82
2023/04/16 07:55:01;;;;;;;1.95;0.90;;;;;;;;;;5059986;28;20045;-78
2023/04/16 07:57:29;;;;;;;2.45;0.95;;;;;;;;;;5060763;28;20136;-80
2023/04/16 07:59:55;;;;;;;1.55;0.85;;;;;;;;;;5061250;28;20107;-79
2023/04/16 08:02:22;;;;;;;1.33;0.70;;;;;;;;;;5060046;28;20072;-79
2023/04/16 08:04:49;;;;;;;3.33;1.15;;;;;;;;;;5060131;28;20083;-81
2023/04/16 08:07:15;;;;;;;1.25;0.68;;;;;;;;;;5060801;28;20055;-81
2023/04/16 08:09:48;;;;;;;1.58;0.80;;;;;;;;;;5061178;28;20135;-79
2023/04/16 08:12:16;;;;;;;1.38;0.80;;;;;;;;;;5060671;28;20063;-79
2023/04/16 08:14:44;;;;;;;1.45;0.88;;;;;;;;;;5059649;28;20056;-78
2023/04/16 08:17:11;;;;;;;1.38;0.63;;;;;;;;;;5047455;28;20053;-78
2023/04/16 08:19:38;;;;;;;1.67;0.63;;;;;;;;;;5036830;28;20492;-79
2023/04/16 08:22:05;;;;;;;0.93;0.73;;;;;;;;;;5039095;28;20057;-78
2023/04/16 08:24:31;;;;;;;1.40;0.80;;;;;;;;;;5037324;28;20061;-79
2023/04/16 08:26:58;;;;;;;1.35;0.90;;;;;;;;;;5037476;28;20056;-78
2023/04/16 08:29:25;;;;;;;1.35;0.70;;;;;;;;;;5039318;28;20084;-79
2023/04/16 08:31:53;;;;;;;2.30;0.80;;;;;;;;;;5039281;28;20057;-79
2023/04/16 08:34:20;;;;;;;2.33;0.82;;;;;;;;;;5038672;28;20099;-80
2023/04/16 08:36:47;;;;;;;2.10;0.90;;;;;;;;;;5039625;28;20049;-79
2023/04/16 08:39:14;;;;;;;1.38;0.82;;;;;;;;;;5038722;28;20080;-79
2023/04/16 08:41:43;;;;;;;1.38;0.65;;;;;;;;;;5039587;28;20045;-79
2023/04/16 08:44:14;;;;;;;1.13;0.60;;;;;;;;;;5043774;28;20064;-78
2023/04/16 08:46:41;;;;;;;1.15;0.60;;;;;;;;;;5049120;28;20049;-78
2023/04/16 08:49:14;;;;;;;1.65;0.80;;;;;;;;;;5051756;28;20045;-78
2023/04/16 08:51:45;;;;;;;1.10;0.65;;;;;;;;;;5050745;28;20077;-78
2023/04/16 08:54:21;;;;;;;1.98;0.70;;;;;;;;;;5036982;28;20085;-79
2023/04/16 08:56:49;;;;;;;2.05;0.90;;;;;;;;;;5037466;28;20054;-79
2023/04/16 08:59:17;;;;;;;2.40;0.80;;;;;;;;;;5035980;28;20045;-78
2023/04/16 09:01:45;;;;;;;1.15;0.70;;;;;;;;;;5035992;28;20046;-78
2023/04/16 09:04:14;;;;;;;1.42;0.70;;;;;;;;;;5035281;28;20052;-78
2023/04/16 09:06:42;;;;;;;1.30;0.70;;;;;;;;;;5036135;28;20072;-78
2023/04/16 09:09:12;;;;;;;1.75;0.60;;;;;;;;;;5035654;28;20048;-78
2023/04/16 09:11:39;;;;;;;1.13;0.60;;;;;;;;;;5035995;28;20045;-78
2023/04/16 09:14:09;;;;;;;2.22;0.77;;;;;;;;;;5036473;28;20042;-77
2023/04/16 09:16:36;;;;;;;1.05;0.60;;;;;;;;;;5035764;28;20053;-78
2023/04/16 09:19:03;;;;;;;1.63;0.70;;;;;;;;;;5035223;28;20463;-78
2023/04/16 09:21:32;;;;;;;1.63;0.80;;;;;;;;;;5038552;28;20052;-79
2023/04/16 09:24:00;;;;;;;2.05;0.82;;;;;;;;;;5038138;28;20152;-78
2023/04/16 09:26:27;;;;;;;1.08;0.63;;;;;;;;;;5036441;28;20053;-77
2023/04/16 09:28:54;;;;;;;1.63;0.80;;;;;;;;;;5042730;28;20045;-78
2023/04/16 09:31:21;;;;;;;3.58;0.70;;;;;;;;;;5045519;28;20109;-78
2023/04/16 09:34:02;;;;;;;1.05;0.60;;;;;;;;;;5040751;28;20073;-79
2023/04/16 09:36:30;;;;;;;1.85;0.70;;;;;;;;;;5034941;28;20092;-78
2023/04/16 09:38:58;;;;;;;1.20;0.73;;;;;;;;;;5034115;28;20057;-78
2023/04/16 09:41:27;;;;;;;1.35;0.63;;;;;;;;;;5041787;28;20091;-80
2023/04/16 09:43:56;;;;;;;0.95;0.60;;;;;;;;;;5047620;28;20107;-79
2023/04/16 09:46:23;;;;;;;1.30;0.50;;;;;;;;;;5045146;28;20045;-79
2023/04/16 09:48:49;;;;;;;0.70;0.45;;;;;;;;;;5047108;28;20393;-77
2023/04/16 09:51:16;;;;;;;1.00;0.63;;;;;;;;;;5046924;28;20045;-78
2023/04/16 09:53:43;;;;;;;0.82;0.50;;;;;;;;;;5048192;28;20041;-80
2023/04/16 09:56:11;;;;;;;0.82;0.60;;;;;;;;;;5041322;28;20908;-79
2023/04/16 09:58:38;;;;;;;1.13;0.60;;;;;;;;;;5037672;28;20049;-79
2023/04/16 10:01:08;;;;;;;1.10;0.50;;;;;;;;;;5035669;28;20132;-79
2023/04/16 10:03:36;;;;;;;0.77;0.50;;;;;;;;;;5034360;28;20046;-77
2023/04/16 10:06:08;;;;;;;1.75;0.45;;;;;;;;;;5034544;28;20061;-77
2023/04/16 10:08:35;;;;;;;1.05;0.50;;;;;;;;;;5033472;28;20053;-77
2023/04/16 10:11:02;;;;;;;0.60;0.35;;;;;;;;;;5034473;28;20048;-77
2023/04/16 10:13:31;;;;;;;0.50;0.40;;;;;;;;;;5034298;28;20133;-77
2023/04/16 10:15:58;;;;;;;0.82;0.40;;;;;;;;;;5033885;28;20056;-77
2023/04/16 10:18:25;;;;;;;0.60;0.40;;;;;;;;;;5035591;28;20111;-77
2023/04/16 10:20:53;;;;;;;1.13;0.50;;;;;;;;;;5050453;28;20055;-78
2023/04/16 10:23:20;;;;;;;1.08;0.55;;;;;;;;;;5033207;28;20073;-77
2023/04/16 10:25:48;;;;;;;1.83;0.80;;;;;;;;;;5032639;28;20049;-77
2023/04/16 10:28:15;;;;;;;1.10;0.63;;;;;;;;;;5032101;28;20136;-77
2023/04/16 10:30:51;;;;;;;1.17;0.60;;;;;;;;;;5032313;28;20132;-78
2023/04/16 10:33:18;;;;;;;1.23;0.40;;;;;;;;;;5034226;28;20045;-79
2023/04/16 10:35:45;;;;;;;1.63;0.70;;;;;;;;;;5033317;28;20051;-79
2023/04/16 10:38:23;;;;;;;1.25;0.50;;;;;;;;;;5031889;28;20077;-76
2023/04/16 10:40:49;;;;;;;1.27;0.50;;;;;;;;;;5032111;28;20050;-78
2023/04/16 10:43:21;;;;;;;1.80;0.80;;;;;;;;;;5032643;28;20129;-78
2023/04/16 10:45:49;;;;;;;1.40;0.70;;;;;;;;;;5032053;28;20046;-77
2023/04/16 10:48:19;;;;;;;1.02;0.60;;;;;;;;;;5032014;28;20048;-77
2023/04/16 10:50:55;;;;;;;1.00;0.70;;;;;;;;;;5032156;28;20455;-77
2023/04/16 10:53:24;;;;;;;1.38;0.70;;;;;;;;;;5032104;28;20390;-77
2023/04/16 10:56:12;;;;;;;1.52;0.70;;;;;;;;;;5031722;28;20049;-79
2023/04/16 10:58:39;;;;;;;1.23;0.80;;;;;;;;;;5033279;28;20512;-79
2023/04/16 11:01:15;;;;;;;1.77;0.70;;;;;;;;;;5033259;28;20053;-77
2023/04/16 11:03:43;;;;;;;1.55;0.98;;;;;;;;;;5034970;28;20049;-79
2023/04/16 11:06:15;;;;;;;1.65;1.00;;;;;;;;;;5034419;28;20042;-78
2023/04/16 11:08:44;;;;;;;1.33;0.90;;;;;;;;;;5032969;28;20142;-79
2023/04/16 11:11:11;;;;;;;2.17;1.20;;;;;;;;;;5033157;28;20049;-77
2023/04/16 11:13:38;;;;;;;1.33;0.80;;;;;;;;;;5032947;28;20045;-78
2023/04/16 11:16:06;;;;;;;1.33;0.85;;;;;;;;;;5034071;28;20111;-78
2023/04/16 11:18:34;;;;;;;2.25;1.17;;;;;;;;;;5031965;28;20052;-78
2023/04/16 11:21:01;;;;;;;2.13;1.00;;;;;;;;;;5034722;28;20175;-78
2023/04/16 11:23:28;;;;;;;1.55;0.80;;;;;;;;;;5034217;28;20607;-78
2023/04/16 11:25:57;;;;;;;1.55;0.93;;;;;;;;;;5032072;28;20045;-80
2023/04/16 11:28:34;;;;;;;1.98;0.90;;;;;;;;;;5042703;28;20033;-78
2023/04/16 11:31:10;;;;;;;3.08;1.00;;;;;;;;;;5042904;28;20049;-78
2023/04/16 11:33:39;;;;;;;2.80;1.00;;;;;;;;;;5047927;28;20053;-77
2023/04/16 11:36:06;;;;;;;1.38;0.80;;;;;;;;;;5042515;28;20046;-77
2023/04/16 11:38:34;;;;;;;1.27;0.90;;;;;;;;;;5046384;28;20053;-77
2023/04/16 11:41:01;;;;;;;1.38;0.80;;;;;;;;;;5057557;28;20045;-78
2023/04/16 11:43:28;;;;;;;1.70;0.88;;;;;;;;;;5065476;28;20045;-77
2023/04/16 11:45:59;;;;;;;1.50;0.90;;;;;;;;;;5057050;28;20053;-77
2023/04/16 11:48:26;;;;;;;;;;;;;;;;;;5060139;28;20455;-77
2023/04/16 11:50:58;;;;;;;2.72;1.10;;;;;;;;;;5061298;28;19925;-78
2023/04/16 11:53:24;;;;;;;1.80;1.00;;;;;;;;;;5060044;28;20481;-78
2023/04/16 11:55:51;;;;;;;2.60;1.00;;;;;;;;;;5058036;28;20504;-78
2023/04/16 11:58:19;;;;;;;2.58;1.40;;;;;;;;;;5057548;28;20427;-79
2023/04/16 12:00:46;;;;;;;1.05;0.75;;;;;;;;;;5057958;28;20048;-78
2023/04/16 12:03:13;;;;;;;3.35;1.30;;;;;;;;;;5056740;28;20149;-78
2023/04/16 12:05:40;;;;;;;3.42;1.40;;;;;;;;;;5057319;28;20120;-77
2023/04/16 12:08:10;;;;;;;2.80;1.35;;;;;;;;;;5055787;28;20041;-77
2023/04/16 12:10:52;;;;;;;2.65;1.10;;;;;;;;;;5055584;28;20076;-77
2023/04/16 12:13:19;;;;;;;2.15;1.30;;;;;;;;;;5057585;28;20076;-76
2023/04/16 12:15:47;;;;;;;1.40;0.98;;;;;;;;;;5052250;28;20569;-74
2023/04/16 12:18:14;;;;;;;3.13;1.58;;;;;;;;;;5049140;28;20076;-76
2023/04/16 12:20:42;;;;;;;2.00;1.10;;;;;;;;;;5041328;28;20036;-77
2023/04/16 12:23:12;;;;;;;1.90;1.20;;;;;;;;;;5035380;28;20076;-77
2023/04/16 12:25:42;;;;;;;1.77;1.00;;;;;;;;;;5043087;28;20067;-76
2023/04/16 12:28:09;;;;;;;3.63;1.30;;;;;;;;;;5035028;28;20049;-76
2023/04/16 12:30:50;;;;;;;1.98;1.20;;;;;;;;;;5034848;28;20643;-77
2023/04/16 12:33:17;;;;;;;4.13;1.77;;;;;;;;;;5034761;28;20060;-75
2023/04/16 12:35:47;;;;;;;6.78;2.92;;;;;;;;;;5044795;28;20083;-78
2023/04/16 12:38:15;;;;;;;3.92;1.73;;;;;;;;;;5035057;28;20064;-77
2023/04/16 12:40:42;;;;;;;7.78;3.22;;;;;;;;;;5040086;28;20091;-77
2023/04/16 12:43:09;;;;;;;4.07;1.58;;;;;;;;;;5044027;28;20054;-76
2023/04/16 12:45:36;;;;;;;3.92;1.80;;;;;;;;;;5034633;28;20045;-76
2023/04/16 12:48:03;;;;;;;2.17;1.30;;;;;;;;;;5034734;28;20148;-76
2023/04/16 12:50:30;;;;;;;1.98;1.30;;;;;;;;;;5037094;28;20132;-76
2023/04/16 12:52:57;;;;;;;2.80;1.40;;;;;;;;;;5037312;28;20045;-76
2023/04/16 12:55:25;;;;;;;2.88;1.40;;;;;;;;;;5035717;28;20076;-76
2023/04/16 12:57:52;;;;;;;4.50;2.00;;;;;;;;;;5032916;28;20053;-77
2023/04/16 13:00:20;;;;;;;2.92;1.30;;;;;;;;;;5033063;28;20057;-76
2023/04/16 13:02:46;;;;;;;2.28;1.20;;;;;;;;;;5034049;28;20049;-77
2023/04/16 13:05:15;;;;;;;2.15;1.40;;;;;;;;;;5034563;28;20048;-77
2023/04/16 13:07:42;;;;;;;2.38;1.40;;;;;;;;;;5033774;28;20096;-75
2023/04/16 13:10:09;;;;;;;2.42;1.30;;;;;;;;;;5035874;28;20046;-77
2023/04/16 13:12:38;;;;;;;3.67;1.95;;;;;;;;;;5035321;28;20075;-75
2023/04/16 13:15:05;;;;;;;2.55;1.20;;;;;;;;;;5034735;28;20047;-75
2023/04/16 13:17:31;;;;;;;2.53;1.30;;;;;;;;;;5033654;28;20045;-75
2023/04/16 13:19:58;;;;;;;3.40;1.30;;;;;;;;;;5033648;28;20042;-76
2023/04/16 13:22:24;;;;;;;2.50;1.25;;;;;;;;;;5034237;28;20073;-75
2023/04/16 13:24:51;;;;;;;2.28;1.10;;;;;;;;;;5034139;28;20103;-77
2023/04/16 13:27:19;;;;;;;3.03;1.60;;;;;;;;;;5034020;28;20075;-76
2023/04/16 13:29:47;;;;;;;3.95;2.08;;;;;;;;;;5034356;28;20453;-76
2023/04/16 13:32:15;;;;;;;3.80;1.80;;;;;;;;;;5033477;28;20052;-76
2023/04/16 13:34:42;;;;;;;3.58;1.70;;;;;;;;;;5033753;28;20128;-76
2023/04/16 13:37:09;;;;;;;3.15;1.52;;;;;;;;;;5033751;28;20393;-76
2023/04/16 13:39:35;;;;;;;3.45;1.63;;;;;;;;;;5033163;28;20046;-76
2023/04/16 13:42:02;;;;;;;3.05;1.65;;;;;;;;;;5033264;28;20128;-77
2023/04/16 13:44:29;;;;;;;2.33;1.30;;;;;;;;;;5034021;28;20141;-77
2023/04/16 13:46:57;;;;;;;1.98;1.10;;;;;;;;;;5033679;28;20137;-76
2023/04/16 13:49:23;;;;;;;5.05;2.22;;;;;;;;;;5033640;28;20424;-77
2023/04/16 13:51:50;;;;;;;4.53;2.03;;;;;;;;;;5033418;28;20049;-77
2023/04/16 13:54:17;;;;;;;2.83;1.50;;;;;;;;;;5033577;28;20045;-77
2023/04/16 13:56:43;;;;;;;2.33;1.40;;;;;;;;;;5033103;28;20495;-75
2023/04/16 13:59:10;;;;;;;2.60;1.50;;;;;;;;;;5032706;28;20057;-76
2023/04/16 14:01:37;;;;;;;2.42;1.38;;;;;;;;;;5033383;28;20076;-76
2023/04/16 14:04:05;;;;;;;2.78;1.40;;;;;;;;;;5034946;28;20073;-76
2023/04/16 14:06:32;;;;;;;3.45;1.55;;;;;;;;;;5035472;28;20049;-76
2023/04/16 14:08:59;;;;;;;2.67;1.27;;;;;;;;;;5032867;28;20052;-77
2023/04/16 14:11:25;;;;;;;2.67;1.25;;;;;;;;;;5033439;28;20045;-78
2023/04/16 14:13:54;;;;;;;2.10;1.23;;;;;;;;;;5033791;28;20077;-77
2023/04/16 14:16:21;;;;;;;3.90;1.30;;;;;;;;;;5033553;28;20457;-77
2023/04/16 14:18:48;;;;;;;1.83;1.00;;;;;;;;;;5037854;28;20059;-77
2023/04/16 14:21:16;;;;;;;2.28;1.08;;;;;;;;;;5053217;28;20463;-76
2023/04/16 14:23:42;;;;;;;3.17;1.30;;;;;;;;;;5053648;28;20049;-76
2023/04/16 14:26:09;;;;;;;2.85;1.23;;;;;;;;;;5052880;28;20053;-77
2023/04/16 14:28:36;;;;;;;3.47;1.60;;;;;;;;;;5052612;28;20415;-77
2023/04/16 14:31:02;;;;;;;2.38;1.27;;;;;;;;;;5052785;28;20089;-77
2023/04/16 14:33:29;;;;;;;2.88;1.40;;;;;;;;;;5052382;28;20504;-76
2023/04/16 14:35:56;;;;;;;2.85;1.10;;;;;;;;;;5052187;28;20079;-76
2023/04/16 14:38:24;;;;;;;2.25;1.00;;;;;;;;;;5051853;28;20070;-75
2023/04/16 14:40:51;;;;;;;2.08;1.00;;;;;;;;;;5052794;28;20063;-75
2023/04/16 14:43:18;;;;;;;1.85;1.02;;;;;;;;;;5053249;28;20079;-76
2023/04/16 14:45:45;;;;;;;1.83;1.23;;;;;;;;;;5053147;28;20456;-78